createdAt,value
2022-12-18T00:00:07.854Z,99803.97
2022-12-18T00:02:35.924Z,99816.25
2022-12-18T00:05:05.707Z,99818.94
2022-12-18T00:07:33.692Z,99815.19
2022-12-18T00:10:01.600Z,99817.03
2022-12-18T00:12:30.150Z,99826.44
2022-12-18T00:14:58.407Z,99823.81
2022-12-18T00:17:26.392Z,99837.44
2022-12-18T00:19:54.358Z,99828.78
2022-12-18T00:22:23.737Z,99833.16
2022-12-18T00:24:51.754Z,99830.78
2022-12-18T00:27:19.767Z,99829.16
2022-12-18T00:29:47.752Z,99841.22
2022-12-18T00:32:15.735Z,99844.56
2022-12-18T00:34:43.711Z,99847.22
2022-12-18T00:37:15.568Z,99847.22
2022-12-18T00:39:47.670Z,99849.88
2022-12-18T00:42:32.868Z,99835.94
2022-12-18T00:45:00.856Z,99830.91
2022-12-18T00:47:28.812Z,99845.56
2022-12-18T00:49:56.782Z,99841.31
2022-12-18T00:52:24.836Z,99817.00
2022-12-18T00:54:54.194Z,99838.66
2022-12-18T00:57:22.200Z,99833.44
2022-12-18T00:59:50.382Z,99822.16
2022-12-18T01:02:18.665Z,99825.47
2022-12-18T01:04:46.863Z,99838.47
2022-12-18T01:07:14.826Z,99833.44
2022-12-18T01:09:42.773Z,99759.00
2022-12-18T01:12:12.208Z,99820.47
2022-12-18T01:14:40.220Z,99818.75
2022-12-18T01:17:08.214Z,99846.47
2022-12-18T01:19:36.354Z,99849.97
2022-12-18T01:22:04.381Z,99851.66
2022-12-18T01:24:32.345Z,99833.44
2022-12-18T01:27:00.333Z,99856.84
2022-12-18T01:29:29.878Z,99824.78
2022-12-18T01:31:58.532Z,99810.06
2022-12-18T01:34:26.630Z,99859.44
2022-12-18T01:36:54.592Z,99862.06
2022-12-18T01:39:22.628Z,99843.00
2022-12-18T01:42:06.206Z,99832.59
2022-12-18T01:45:23.647Z,99871.56
2022-12-18T01:47:54.154Z,99868.03
2022-12-18T01:50:25.573Z,99868.81
2022-12-18T01:52:56.081Z,99869.66
2022-12-18T01:55:27.160Z,99861.78
2022-12-18T01:57:57.456Z,99878.94
2022-12-18T02:00:28.400Z,99878.94
2022-12-18T02:02:56.798Z,99888.53
2022-12-18T02:05:32.925Z,99879.09
2022-12-18T02:08:10.576Z,99887.63
2022-12-18T02:10:48.014Z,99847.13
2022-12-18T02:13:21.895Z,99855.69
2022-12-18T02:16:02.894Z,99885.88
2022-12-18T02:18:34.563Z,99878.28
2022-12-18T02:21:13.713Z,99882.53
2022-12-18T02:23:55.354Z,99881.63
2022-12-18T02:26:29.523Z,99888.44
2022-12-18T02:29:04.416Z,99897.06
2022-12-18T02:31:52.009Z,99899.56
2022-12-18T02:34:21.863Z,99872.09
2022-12-18T02:36:52.184Z,99877.38
2022-12-18T02:39:23.795Z,99870.53
2022-12-18T02:41:54.005Z,99859.03
2022-12-18T02:44:21.977Z,99873.09
2022-12-18T02:46:53.794Z,99871.28
2022-12-18T02:49:33.705Z,99873.09
2022-12-18T02:52:09.872Z,99877.44
2022-12-18T02:54:57.349Z,99877.34
2022-12-18T02:57:36.082Z,99853.00
2022-12-18T03:00:08.740Z,99869.59
2022-12-18T03:02:42.577Z,99859.16
2022-12-18T03:05:16.215Z,99853.03
2022-12-18T03:07:49.191Z,99869.56
2022-12-18T03:10:23.925Z,99867.09
2022-12-18T03:12:56.785Z,99866.13
2022-12-18T03:15:28.964Z,99876.56
2022-12-18T03:18:01.829Z,99873.25
2022-12-18T03:20:33.671Z,99876.53
2022-12-18T03:23:08.441Z,99874.00
2022-12-18T03:25:40.925Z,99819.53
2022-12-18T03:28:14.081Z,99871.50
2022-12-18T03:30:46.198Z,99863.53
2022-12-18T03:33:20.766Z,99883.50
2022-12-18T03:35:49.050Z,99879.94
2022-12-18T03:38:17.168Z,99874.69
2022-12-18T03:40:58.221Z,99851.34
2022-12-18T03:43:38.900Z,99880.03
2022-12-18T03:46:12.010Z,99876.53
2022-12-18T03:48:45.913Z,99885.19
2022-12-18T03:51:20.980Z,99875.25
2022-12-18T03:53:54.515Z,99880.88
2022-12-18T03:56:24.733Z,99886.13
2022-12-18T03:58:56.453Z,99883.47
2022-12-18T04:01:33.257Z,99876.69
2022-12-18T04:04:03.154Z,99840.19
2022-12-18T04:06:32.599Z,99875.81
2022-12-18T04:09:01.146Z,99867.22
2022-12-18T04:11:29.210Z,99870.56
2022-12-18T04:14:02.667Z,99884.38
2022-12-18T04:16:32.625Z,99879.19
2022-12-18T04:19:00.673Z,99848.06
2022-12-18T04:21:28.610Z,99868.78
2022-12-18T04:23:56.632Z,99858.41
2022-12-18T04:26:24.750Z,99821.91
2022-12-18T04:28:52.789Z,99865.31
2022-12-18T04:31:22.289Z,99863.53
2022-12-18T04:33:50.296Z,99806.41
2022-12-18T04:36:18.364Z,99867.03
2022-12-18T04:38:46.299Z,99875.34
2022-12-18T04:41:15.789Z,99876.22
2022-12-18T04:43:44.943Z,99876.47
2022-12-18T04:46:12.926Z,99876.44
2022-12-18T04:48:42.460Z,99853.13
2022-12-18T04:51:10.421Z,99870.47
2022-12-18T04:53:38.703Z,99865.38
2022-12-18T04:56:08.393Z,99862.72
2022-12-18T04:58:36.423Z,99865.31
2022-12-18T05:01:04.858Z,99832.38
2022-12-18T05:03:33.030Z,99873.88
2022-12-18T05:06:02.809Z,99829.72
2022-12-18T05:08:30.754Z,99871.34
2022-12-18T05:11:02.201Z,99880.75
2022-12-18T05:13:30.494Z,99876.41
2022-12-18T05:15:58.663Z,99870.31
2022-12-18T05:18:27.419Z,99866.00
2022-12-18T05:20:56.482Z,99861.66
2022-12-18T05:23:26.898Z,99874.69
2022-12-18T05:25:55.290Z,99861.63
2022-12-18T05:28:24.916Z,99872.16
2022-12-18T05:30:54.515Z,99872.09
2022-12-18T05:33:24.446Z,99869.44
2022-12-18T05:35:53.648Z,99865.94
2022-12-18T05:38:22.474Z,99872.94
2022-12-18T05:40:52.996Z,99857.31
2022-12-18T05:43:22.754Z,99861.56
2022-12-18T05:45:52.240Z,99861.59
2022-12-18T05:48:22.721Z,99871.06
2022-12-18T05:50:54.053Z,99857.22
2022-12-18T05:53:23.929Z,99857.97
2022-12-18T05:55:54.271Z,99875.47
2022-12-18T05:58:23.173Z,99855.50
2022-12-18T06:00:52.503Z,99870.22
2022-12-18T06:03:21.454Z,99875.31
2022-12-18T06:05:50.436Z,99890.09
2022-12-18T06:08:18.413Z,99820.59
2022-12-18T06:10:54.514Z,99898.78
2022-12-18T06:13:22.680Z,99896.13
2022-12-18T06:15:50.688Z,99889.19
2022-12-18T06:18:19.305Z,99889.97
2022-12-18T06:20:47.405Z,99906.50
2022-12-18T06:23:15.350Z,99904.72
2022-12-18T06:25:43.436Z,99907.38
2022-12-18T06:28:12.803Z,99912.47
2022-12-18T06:30:54.441Z,99921.06
2022-12-18T06:33:22.435Z,99921.78
2022-12-18T06:35:50.379Z,99926.00
2022-12-18T06:38:18.321Z,99907.09
2022-12-18T06:40:46.230Z,99912.13
2022-12-18T06:43:15.565Z,99931.16
2022-12-18T06:45:43.651Z,99922.50
2022-12-18T06:48:11.718Z,99906.91
2022-12-18T06:50:39.608Z,99920.75
2022-12-18T06:53:07.557Z,99922.41
2022-12-18T06:55:36.359Z,99939.72
2022-12-18T06:58:04.626Z,99932.00
2022-12-18T07:00:34.014Z,99922.31
2022-12-18T07:03:02.767Z,99935.63
2022-12-18T07:05:34.994Z,99939.81
2022-12-18T07:08:03.945Z,99933.00
2022-12-18T07:10:36.440Z,99941.59
2022-12-18T07:13:05.305Z,99949.25
2022-12-18T07:15:35.328Z,99958.00
2022-12-18T07:18:04.134Z,99954.63
2022-12-18T07:20:33.685Z,99960.69
2022-12-18T07:23:04.317Z,99947.50
2022-12-18T07:25:32.266Z,99976.03
2022-12-18T07:28:00.198Z,99977.50
2022-12-18T07:30:28.177Z,99985.34
2022-12-18T07:32:57.485Z,99992.38
2022-12-18T07:35:25.664Z,99997.56
2022-12-18T07:37:53.688Z,100008.78
2022-12-18T07:40:21.621Z,99990.34
2022-12-18T07:42:49.559Z,100009.41
2022-12-18T07:45:17.640Z,99997.91
2022-12-18T07:47:45.562Z,99973.13
2022-12-18T07:50:15.311Z,100013.94
2022-12-18T07:52:43.270Z,100022.34
2022-12-18T07:55:11.258Z,100031.03
2022-12-18T07:57:50.701Z,100028.31
2022-12-18T08:00:19.738Z,100017.09
2022-12-18T08:02:49.506Z,100019.00
2022-12-18T08:05:19.373Z,100037.16
2022-12-18T08:07:47.451Z,100001.50
2022-12-18T08:10:15.824Z,100032.81
2022-12-18T08:12:43.863Z,100032.81
2022-12-18T08:15:12.300Z,100029.25
2022-12-18T08:17:40.307Z,100023.16
2022-12-18T08:20:09.336Z,99998.97
2022-12-18T08:22:38.690Z,99992.94
2022-12-18T08:25:07.644Z,100017.97
2022-12-18T08:27:35.688Z,99974.72
2022-12-18T08:30:04.060Z,99928.78
2022-12-18T08:32:33.879Z,99977.25
2022-12-18T08:35:01.867Z,99984.44
2022-12-18T08:37:29.914Z,99965.44
2022-12-18T08:39:59.241Z,99982.88
2022-12-18T08:42:44.816Z,99976.81
2022-12-18T08:45:13.008Z,99931.94
2022-12-18T08:47:40.947Z,99946.59
2022-12-18T08:50:09.503Z,99963.19
2022-12-18T08:52:37.497Z,99926.84
2022-12-18T08:55:09.372Z,99948.22
2022-12-18T08:57:37.377Z,99949.94
2022-12-18T09:00:06.368Z,99956.31
2022-12-18T09:02:34.794Z,99960.03
2022-12-18T09:05:02.821Z,99976.50
2022-12-18T09:07:30.808Z,99973.31
2022-12-18T09:09:58.746Z,99966.63
2022-12-18T09:12:28.122Z,99946.06
2022-12-18T09:14:57.327Z,99952.06
2022-12-18T09:17:25.362Z,99966.44
2022-12-18T09:19:54.073Z,99966.22
2022-12-18T09:22:22.080Z,99975.16
2022-12-18T09:24:52.151Z,99978.75
2022-12-18T09:27:20.794Z,99975.41
2022-12-18T09:29:50.549Z,99952.13
2022-12-18T09:32:22.357Z,99963.16
2022-12-18T09:34:50.707Z,99957.22
2022-12-18T09:37:20.006Z,99972.78
2022-12-18T09:39:49.490Z,99973.81
2022-12-18T09:42:22.574Z,99976.34
2022-12-18T09:44:55.755Z,99964.19
2022-12-18T09:47:27.329Z,99991.75
2022-12-18T09:49:58.979Z,99976.56
2022-12-18T09:52:30.919Z,99955.53
2022-12-18T09:55:04.287Z,99963.56
2022-12-18T09:57:38.947Z,99999.00
2022-12-18T10:00:19.084Z,99996.22
2022-12-18T10:02:48.822Z,99971.22
2022-12-18T10:05:20.537Z,99992.28
2022-12-18T10:07:57.928Z,99985.47
2022-12-18T10:10:35.364Z,99958.66
2022-12-18T10:13:15.249Z,99978.53
2022-12-18T10:15:57.129Z,99961.41
2022-12-18T10:18:39.992Z,99958.88
2022-12-18T10:21:14.757Z,99958.88
2022-12-18T10:23:51.845Z,99954.63
2022-12-18T10:26:20.006Z,99952.00
2022-12-18T10:28:49.908Z,99956.25
2022-12-18T10:31:24.501Z,99945.88
2022-12-18T10:33:53.347Z,99941.56
2022-12-18T10:36:22.353Z,99927.75
2022-12-18T10:38:52.122Z,99945.78
2022-12-18T10:41:29.352Z,99932.06
2022-12-18T10:44:17.071Z,99933.75
2022-12-18T10:46:47.646Z,99952.88
2022-12-18T10:49:25.470Z,99939.81
2022-12-18T10:52:06.303Z,99949.47
2022-12-18T10:54:37.126Z,99943.50
2022-12-18T10:57:19.255Z,99949.34
2022-12-18T10:59:55.748Z,99934.00
2022-12-18T11:02:35.464Z,99939.19
2022-12-18T11:05:06.332Z,99925.19
2022-12-18T11:07:52.652Z,99934.94
2022-12-18T11:10:22.134Z,99936.69
2022-12-18T11:12:50.638Z,99937.59
2022-12-18T11:15:22.845Z,99925.34
2022-12-18T11:17:54.046Z,99927.09
2022-12-18T11:20:29.859Z,99913.34
2022-12-18T11:22:59.741Z,99921.22
2022-12-18T11:25:32.296Z,99920.38
2022-12-18T11:28:03.734Z,99927.28
2022-12-18T11:30:33.310Z,99930.63
2022-12-18T11:33:07.348Z,99932.25
2022-12-18T11:35:42.479Z,99940.97
2022-12-18T11:38:20.906Z,99934.97
2022-12-18T11:40:55.388Z,99941.00
2022-12-18T11:43:29.262Z,99945.38
2022-12-18T11:46:04.783Z,99936.75
2022-12-18T11:48:39.401Z,99930.53
2022-12-18T11:51:14.875Z,99915.72
2022-12-18T11:53:42.855Z,99901.88
2022-12-18T11:56:29.827Z,99911.56
2022-12-18T11:59:10.662Z,99906.56
2022-12-18T12:01:48.604Z,99882.38
2022-12-18T12:04:38.297Z,99899.53
2022-12-18T12:07:20.813Z,99899.66
2022-12-18T12:09:57.727Z,99849.47
2022-12-18T12:12:48.894Z,99887.50
2022-12-18T12:15:29.538Z,99891.00
2022-12-18T12:18:11.094Z,99873.78
2022-12-18T12:20:49.813Z,99873.75
2022-12-18T12:23:39.543Z,99854.66
2022-12-18T12:26:11.816Z,99860.75
2022-12-18T12:28:59.519Z,99852.97
2022-12-18T12:31:44.456Z,99863.41
2022-12-18T12:34:20.040Z,99863.31
2022-12-18T12:37:03.478Z,99860.78
2022-12-18T12:39:34.138Z,99870.28
2022-12-18T12:42:21.107Z,99868.63
2022-12-18T12:44:56.421Z,99856.50
2022-12-18T12:47:29.855Z,99874.69
2022-12-18T12:50:00.833Z,99859.97
2022-12-18T12:52:37.080Z,99866.03
2022-12-18T12:55:14.577Z,99877.28
2022-12-18T12:57:48.103Z,99843.53
2022-12-18T13:00:18.790Z,99872.06
2022-12-18T13:02:53.503Z,99866.88
2022-12-18T13:05:28.262Z,99859.97
2022-12-18T13:08:04.512Z,99818.44
2022-12-18T13:10:37.112Z,99849.56
2022-12-18T13:13:09.000Z,99847.81
2022-12-18T13:15:41.955Z,99860.75
2022-12-18T13:18:19.709Z,99838.31
2022-12-18T13:20:55.161Z,99854.69
2022-12-18T13:23:37.434Z,99849.44
2022-12-18T13:26:34.154Z,99838.25
2022-12-18T13:29:05.323Z,99857.25
2022-12-18T13:32:10.272Z,99851.94
2022-12-18T13:34:38.824Z,99846.72
2022-12-18T13:37:55.896Z,99837.19
2022-12-18T13:40:58.971Z,99838.78
2022-12-18T13:43:38.608Z,99824.81
2022-12-18T13:46:19.162Z,99830.03
2022-12-18T13:48:54.253Z,99840.44
2022-12-18T13:51:23.290Z,99831.78
2022-12-18T13:53:54.277Z,99832.75
2022-12-18T13:56:25.443Z,99837.00
2022-12-18T13:59:24.909Z,99832.69
2022-12-18T14:01:56.337Z,99830.00
2022-12-18T14:04:28.417Z,99822.19
2022-12-18T14:07:01.089Z,99812.63
2022-12-18T14:09:32.751Z,99815.25
2022-12-18T14:12:24.957Z,99816.22
2022-12-18T14:14:55.607Z,99772.22
2022-12-18T14:17:25.255Z,99819.75
2022-12-18T14:19:53.961Z,99787.03
2022-12-18T14:22:28.746Z,99802.53
2022-12-18T14:25:16.137Z,99818.09
2022-12-18T14:27:46.050Z,99803.47
2022-12-18T14:30:29.562Z,99803.44
2022-12-18T14:33:05.657Z,99799.16
2022-12-18T14:35:34.140Z,99799.22
2022-12-18T14:38:27.058Z,99814.78
2022-12-18T14:40:56.787Z,99817.38
2022-12-18T14:43:25.007Z,99819.94
2022-12-18T14:45:54.840Z,99826.91
2022-12-18T14:48:26.917Z,99800.97
2022-12-18T14:51:00.601Z,99825.13
2022-12-18T14:53:37.284Z,99828.56
2022-12-18T14:56:13.140Z,99823.38
2022-12-18T14:58:41.428Z,99825.16
2022-12-18T15:01:10.815Z,99829.53
2022-12-18T15:03:45.863Z,99824.38
2022-12-18T15:06:19.722Z,99842.56
2022-12-18T15:08:47.711Z,99836.50
2022-12-18T15:11:30.736Z,99827.84
2022-12-18T15:14:01.228Z,99827.00
2022-12-18T15:16:31.278Z,99826.19
2022-12-18T15:18:59.328Z,99848.63
2022-12-18T15:21:31.621Z,99811.41
2022-12-18T15:24:01.032Z,99855.53
2022-12-18T15:26:39.685Z,99863.31
2022-12-18T15:29:11.379Z,99841.69
2022-12-18T15:31:44.949Z,99863.28
2022-12-18T15:34:21.574Z,99864.19
2022-12-18T15:36:49.681Z,99844.31
2022-12-18T15:39:17.706Z,99875.44
2022-12-18T15:42:05.873Z,99878.91
2022-12-18T15:44:32.954Z,99874.56
2022-12-18T15:47:02.342Z,99852.97
2022-12-18T15:49:30.324Z,99872.84
2022-12-18T15:52:00.851Z,99869.38
2022-12-18T15:54:46.594Z,99860.72
2022-12-18T15:57:27.603Z,99863.31
2022-12-18T15:59:58.989Z,99865.91
2022-12-18T16:02:29.495Z,99859.84
2022-12-18T16:04:58.238Z,99836.53
2022-12-18T16:07:29.134Z,99839.94
2022-12-18T16:09:59.052Z,99844.28
2022-12-18T16:12:29.135Z,99855.50
2022-12-18T16:15:03.050Z,99849.44
2022-12-18T16:17:32.547Z,99847.72
2022-12-18T16:20:00.912Z,99834.72
2022-12-18T16:22:30.934Z,99849.44
2022-12-18T16:25:00.128Z,99842.53
2022-12-18T16:27:28.305Z,99826.09
2022-12-18T16:29:56.363Z,99852.91
2022-12-18T16:32:24.865Z,99855.56
2022-12-18T16:34:54.209Z,99851.22
2022-12-18T16:37:22.156Z,99846.00
2022-12-18T16:39:50.078Z,99849.47
2022-12-18T16:42:21.182Z,99835.63
2022-12-18T16:44:50.531Z,99842.53
2022-12-18T16:47:19.212Z,99826.09
2022-12-18T16:49:47.300Z,99825.22
2022-12-18T16:52:16.686Z,99850.34
2022-12-18T16:54:46.191Z,99853.78
2022-12-18T16:57:16.098Z,99839.91
2022-12-18T16:59:44.412Z,99846.81
2022-12-18T17:02:17.205Z,99859.78
2022-12-18T17:04:47.847Z,99853.78
2022-12-18T17:07:17.562Z,99820.94
2022-12-18T17:09:45.556Z,99838.16
2022-12-18T17:12:13.688Z,99809.72
2022-12-18T17:14:41.729Z,99852.97
2022-12-18T17:17:25.139Z,99842.53
2022-12-18T17:19:53.702Z,99820.03
2022-12-18T17:22:24.276Z,99831.22
2022-12-18T17:24:52.343Z,99803.53
2022-12-18T17:27:20.407Z,99793.13
2022-12-18T17:29:49.129Z,99799.13
2022-12-18T17:32:17.448Z,99799.09
2022-12-18T17:34:45.406Z,99791.31
2022-12-18T17:37:13.403Z,99786.13
2022-12-18T17:39:43.166Z,99775.75
2022-12-18T17:42:14.852Z,99804.41
2022-12-18T17:44:43.680Z,99794.91
2022-12-18T17:47:13.086Z,99778.44
2022-12-18T17:49:41.262Z,99793.19
2022-12-18T17:52:09.392Z,99801.84
2022-12-18T17:54:39.959Z,99799.19
2022-12-18T17:57:09.583Z,99802.69
2022-12-18T17:59:37.641Z,99820.91
2022-12-18T18:02:05.832Z,99803.59
2022-12-18T18:04:34.454Z,99819.13
2022-12-18T18:07:02.436Z,99787.19
2022-12-18T18:09:30.420Z,99836.47
2022-12-18T18:12:15.760Z,99821.75
2022-12-18T18:14:45.268Z,99819.13
2022-12-18T18:17:13.206Z,99839.03
2022-12-18T18:19:42.179Z,99821.72
2022-12-18T18:22:12.278Z,99806.16
2022-12-18T18:24:43.544Z,99844.22
2022-12-18T18:27:11.597Z,99829.53
2022-12-18T18:29:40.171Z,99838.13
2022-12-18T18:32:09.583Z,99842.47
2022-12-18T18:34:37.714Z,99825.16
2022-12-18T18:37:06.021Z,99824.28
2022-12-18T18:39:34.056Z,99837.25
2022-12-18T18:42:02.034Z,99819.94
2022-12-18T18:44:30.485Z,99826.00
2022-12-18T18:47:00.102Z,99833.78
2022-12-18T18:49:31.908Z,99822.56
2022-12-18T18:52:00.433Z,99817.28
2022-12-18T18:54:29.478Z,99794.81
2022-12-18T18:57:19.868Z,99821.59
2022-12-18T18:59:47.193Z,99811.22
2022-12-18T19:02:16.614Z,99795.66
2022-12-18T19:04:47.022Z,99810.31
2022-12-18T19:07:28.113Z,99803.41
2022-12-18T19:09:58.131Z,99802.53
2022-12-18T19:12:49.174Z,99770.53
2022-12-18T19:15:17.099Z,99784.31
2022-12-18T19:17:47.410Z,99769.66
2022-12-18T19:20:17.555Z,99774.78
2022-12-18T19:22:47.979Z,99772.16
2022-12-18T19:25:26.818Z,99771.28
2022-12-18T19:28:12.059Z,99770.34
2022-12-18T19:30:54.512Z,99777.38
2022-12-18T19:33:42.442Z,99768.72
2022-12-18T19:36:19.360Z,99760.97
2022-12-18T19:38:47.423Z,99754.00
2022-12-18T19:41:16.290Z,99753.13
2022-12-18T19:43:44.789Z,99740.09
2022-12-18T19:46:15.516Z,99734.88
2022-12-18T19:48:44.440Z,99734.03
2022-12-18T19:51:16.991Z,99710.63
2022-12-18T19:53:45.469Z,99723.75
2022-12-18T19:56:15.765Z,99741.06
2022-12-18T19:58:44.796Z,99735.06
2022-12-18T20:01:13.744Z,99761.81
2022-12-18T20:03:49.133Z,99760.16
2022-12-18T20:06:26.703Z,99755.84
2022-12-18T20:08:59.577Z,99742.81
2022-12-18T20:11:28.385Z,99731.50
2022-12-18T20:13:56.343Z,99756.59
2022-12-18T20:16:24.587Z,99748.03
2022-12-18T20:18:52.615Z,99754.03
2022-12-18T20:21:22.373Z,99741.88
2022-12-18T20:23:50.344Z,99755.63
2022-12-18T20:26:18.425Z,99754.78
2022-12-18T20:28:46.525Z,99758.22
2022-12-18T20:31:14.830Z,99757.34
2022-12-18T20:33:46.327Z,99772.13
2022-12-18T20:36:21.175Z,99772.13
2022-12-18T20:38:51.018Z,99761.69
2022-12-18T20:41:21.451Z,99731.38
2022-12-18T20:43:49.802Z,99765.97
2022-12-18T20:46:18.746Z,99727.91
2022-12-18T20:48:47.815Z,99715.84
2022-12-18T20:51:17.991Z,99731.31
2022-12-18T20:53:46.977Z,99741.72
2022-12-18T20:56:21.184Z,99776.34
2022-12-18T20:58:50.551Z,99764.22
2022-12-18T21:01:24.812Z,99744.25
2022-12-18T21:03:53.312Z,99760.66
2022-12-18T21:06:22.878Z,99767.53
2022-12-18T21:08:50.911Z,99736.47
2022-12-18T21:11:42.819Z,99763.28
2022-12-18T21:14:13.082Z,99772.78
2022-12-18T21:16:43.011Z,99762.38
2022-12-18T21:19:11.634Z,99750.25
2022-12-18T21:21:39.944Z,99746.72
2022-12-18T21:24:09.735Z,99747.69
2022-12-18T21:26:45.438Z,99739.84
2022-12-18T21:29:15.866Z,99733.75
2022-12-18T21:31:45.460Z,99741.53
2022-12-18T21:34:17.780Z,99758.94
2022-12-18T21:36:46.263Z,99731.31
2022-12-18T21:39:15.962Z,99739.84
2022-12-18T21:42:03.754Z,99670.81
2022-12-18T21:44:35.701Z,99751.09
2022-12-18T21:47:21.487Z,99724.44
2022-12-18T21:49:52.044Z,99756.34
2022-12-18T21:52:21.574Z,99729.50
2022-12-18T21:54:55.837Z,99763.13
2022-12-18T21:57:25.250Z,99744.16
2022-12-18T21:59:54.723Z,99678.50
2022-12-18T22:02:26.130Z,99749.28
2022-12-18T22:04:54.193Z,99747.53
2022-12-18T22:07:22.639Z,99758.72
2022-12-18T22:09:51.180Z,99736.22
2022-12-18T22:12:35.829Z,99727.59
2022-12-18T22:15:21.818Z,99746.53
2022-12-18T22:17:56.931Z,99753.53
2022-12-18T22:20:29.512Z,99744.84
2022-12-18T22:22:58.269Z,99743.09
2022-12-18T22:25:26.227Z,99740.44
2022-12-18T22:28:08.052Z,99729.97
2022-12-18T22:30:37.456Z,99736.88
2022-12-18T22:33:05.539Z,99731.69
2022-12-18T22:35:33.416Z,99716.06
2022-12-18T22:38:02.677Z,99719.47
2022-12-18T22:40:31.312Z,99715.94
2022-12-18T22:42:59.399Z,99712.41
2022-12-18T22:45:27.967Z,99702.91
2022-12-18T22:47:57.388Z,99713.25
2022-12-18T22:50:25.311Z,99707.09
2022-12-18T22:52:53.277Z,99668.16
2022-12-18T22:55:21.258Z,99707.03
2022-12-18T22:57:50.453Z,99689.69
2022-12-18T23:00:24.157Z,99697.44
2022-12-18T23:02:59.218Z,99682.75
2022-12-18T23:05:30.603Z,99683.72
2022-12-18T23:07:59.574Z,99696.69
2022-12-18T23:10:28.611Z,99680.31
2022-12-18T23:12:56.587Z,99695.00
2022-12-18T23:15:27.731Z,99696.69
2022-12-18T23:17:57.367Z,99686.38
2022-12-18T23:20:25.986Z,99701.94
2022-12-18T23:22:55.441Z,99696.78
2022-12-18T23:25:23.679Z,99651.00
2022-12-18T23:27:51.823Z,99680.31
2022-12-18T23:30:20.290Z,99677.72
2022-12-18T23:32:48.423Z,99683.78
2022-12-18T23:35:16.472Z,99623.47
2022-12-18T23:38:00.726Z,99713.06
2022-12-18T23:40:31.122Z,99701.00
2022-12-18T23:43:00.320Z,99683.56
2022-12-18T23:45:28.275Z,99675.81
2022-12-18T23:47:56.238Z,99662.00
2022-12-18T23:50:29.408Z,99687.97
2022-12-18T23:53:00.678Z,99686.13
2022-12-18T23:55:39.852Z,99688.72
2022-12-18T23:58:08.735Z,99689.63
